createdAt,value
2023-04-12T00:01:51.046Z,58.88
2023-04-12T00:04:22.903Z,59.01
2023-04-12T00:06:55.014Z,58.93
2023-04-12T00:09:30.950Z,58.93
2023-04-12T00:12:03.097Z,58.93
2023-04-12T00:14:35.123Z,58.83
2023-04-12T00:17:06.905Z,58.86
2023-04-12T00:19:41.477Z,58.93
2023-04-12T00:22:13.365Z,58.84
2023-04-12T00:24:44.931Z,58.92
2023-04-12T00:27:16.670Z,58.76
2023-04-12T00:29:48.259Z,58.85
2023-04-12T00:32:21.066Z,58.94
2023-04-12T00:34:52.752Z,59.04
2023-04-12T00:37:24.964Z,58.96
2023-04-12T00:39:56.389Z,58.89
2023-04-12T00:42:29.708Z,58.92
2023-04-12T00:45:00.965Z,59.09
2023-04-12T00:47:32.587Z,59.01
2023-04-12T00:50:06.144Z,59.14
2023-04-12T00:52:37.837Z,59.07
2023-04-12T00:55:11.181Z,59.20
2023-04-12T00:57:43.126Z,59.17
2023-04-12T01:00:17.443Z,59.11
2023-04-12T01:02:50.728Z,59.08
2023-04-12T01:05:24.472Z,59.05
2023-04-12T01:08:12.182Z,59.22
2023-04-12T01:10:52.487Z,59.17
2023-04-12T01:13:31.972Z,59.29
2023-04-12T01:16:13.919Z,59.27
2023-04-12T01:18:52.542Z,59.26
2023-04-12T01:21:32.989Z,59.15
2023-04-12T01:24:21.822Z,59.08
2023-04-12T01:26:57.977Z,58.96
2023-04-12T01:29:31.940Z,59.08
2023-04-12T01:32:05.047Z,58.90
2023-04-12T01:34:39.192Z,58.87
2023-04-12T01:37:12.709Z,58.77
2023-04-12T01:39:44.681Z,58.82
2023-04-12T01:42:22.122Z,58.72
2023-04-12T01:44:53.729Z,58.66
2023-04-12T01:47:25.291Z,58.65
2023-04-12T01:50:05.520Z,58.71
2023-04-12T01:52:43.310Z,58.51
2023-04-12T01:55:16.295Z,58.59
2023-04-12T01:57:49.392Z,58.63
2023-04-12T02:00:23.886Z,58.49
2023-04-12T02:02:57.870Z,58.62
2023-04-12T02:05:29.401Z,58.45
2023-04-12T02:08:01.227Z,58.35
2023-04-12T02:10:33.358Z,58.44
2023-04-12T02:13:05.141Z,58.47
2023-04-12T02:15:37.250Z,58.54
2023-04-12T02:18:09.867Z,58.54
2023-04-12T02:20:42.079Z,58.56
2023-04-12T02:23:13.906Z,58.62
2023-04-12T02:25:46.918Z,58.61
2023-04-12T02:28:19.388Z,58.60
2023-04-12T02:30:54.236Z,58.69
2023-04-12T02:33:28.512Z,58.60
2023-04-12T02:36:02.659Z,58.81
2023-04-12T02:38:34.005Z,58.78
2023-04-12T02:41:07.818Z,58.89
2023-04-12T02:43:40.088Z,58.87
2023-04-12T02:46:16.135Z,58.92
2023-04-12T02:48:51.002Z,58.97
2023-04-12T02:51:22.994Z,58.94
2023-04-12T02:53:55.352Z,58.96
2023-04-12T02:56:30.075Z,59.02
2023-04-12T02:59:08.042Z,58.99
2023-04-12T03:01:53.597Z,59.05
2023-04-12T03:04:30.773Z,59.14
2023-04-12T03:07:03.788Z,59.07
2023-04-12T03:09:42.660Z,59.12
2023-04-12T03:12:15.601Z,59.17
2023-04-12T03:14:54.738Z,59.13
2023-04-12T03:17:29.024Z,59.19
2023-04-12T03:20:10.277Z,59.22
2023-04-12T03:22:45.489Z,59.28
2023-04-12T03:25:18.132Z,59.23
2023-04-12T03:27:55.625Z,59.29
2023-04-12T03:30:30.995Z,59.13
2023-04-12T03:33:02.431Z,59.18
2023-04-12T03:35:34.860Z,59.34
2023-04-12T03:38:07.091Z,59.27
2023-04-12T03:40:39.883Z,59.38
2023-04-12T03:43:12.252Z,59.37
2023-04-12T03:45:44.624Z,59.39
2023-04-12T03:48:16.843Z,59.33
2023-04-12T03:50:48.605Z,59.39
2023-04-12T03:53:24.790Z,59.50
2023-04-12T03:55:56.678Z,59.46
2023-04-12T03:58:29.734Z,59.58
2023-04-12T04:01:04.060Z,59.59
2023-04-12T04:03:36.424Z,59.71
2023-04-12T04:06:17.544Z,59.62
2023-04-12T04:08:49.640Z,59.70
2023-04-12T04:11:21.488Z,59.65
2023-04-12T04:13:56.079Z,59.69
2023-04-12T04:16:29.449Z,59.64
2023-04-12T04:19:01.141Z,59.86
2023-04-12T04:21:32.768Z,59.74
2023-04-12T04:24:09.087Z,59.80
2023-04-12T04:26:43.567Z,59.91
2023-04-12T04:29:27.198Z,59.81
2023-04-12T04:31:59.423Z,59.88
2023-04-12T04:34:32.038Z,59.89
2023-04-12T04:37:13.589Z,60.02
2023-04-12T04:39:45.506Z,60.02
2023-04-12T04:42:17.117Z,60.02
2023-04-12T04:45:04.812Z,60.19
2023-04-12T04:47:41.640Z,60.32
2023-04-12T04:50:13.771Z,60.29
2023-04-12T04:52:45.237Z,60.70
2023-04-12T04:55:18.933Z,60.42
2023-04-12T04:57:52.113Z,60.14
2023-04-12T05:00:25.660Z,59.85
2023-04-12T05:03:00.519Z,59.74
2023-04-12T05:05:33.014Z,59.64
2023-04-12T05:08:09.540Z,59.27
2023-04-12T05:10:41.402Z,59.00
2023-04-12T05:13:12.486Z,58.80
2023-04-12T05:15:45.124Z,58.65
2023-04-12T05:18:17.927Z,58.41
2023-04-12T05:20:49.488Z,58.31
2023-04-12T05:23:22.495Z,58.10
2023-04-12T05:25:55.245Z,58.29
2023-04-12T05:28:28.164Z,58.34
2023-04-12T05:30:59.759Z,58.24
2023-04-12T05:33:38.337Z,58.09
2023-04-12T05:36:12.083Z,58.13
2023-04-12T05:38:44.649Z,58.01
2023-04-12T05:41:17.816Z,57.92
2023-04-12T05:43:49.678Z,57.67
2023-04-12T05:46:21.651Z,57.73
2023-04-12T05:48:55.194Z,57.58
2023-04-12T05:51:39.945Z,57.50
2023-04-12T05:54:16.048Z,57.43
2023-04-12T05:56:47.724Z,57.47
2023-04-12T05:59:19.700Z,57.37
2023-04-12T06:01:51.749Z,57.41
2023-04-12T06:04:34.946Z,57.46
2023-04-12T06:07:19.700Z,57.27
2023-04-12T06:09:50.963Z,57.25
2023-04-12T06:12:23.776Z,57.27
2023-04-12T06:14:56.028Z,57.35
2023-04-12T06:17:27.904Z,57.46
2023-04-12T06:20:00.568Z,57.53
2023-04-12T06:22:33.036Z,57.54
2023-04-12T06:25:04.728Z,57.57
2023-04-12T06:27:36.965Z,57.60
2023-04-12T06:30:10.866Z,57.72
2023-04-12T06:32:42.422Z,57.87
2023-04-12T06:35:14.595Z,57.97
2023-04-12T06:37:46.261Z,57.91
2023-04-12T06:40:18.283Z,57.83
2023-04-12T06:42:49.729Z,57.91
2023-04-12T06:45:27.564Z,57.85
2023-04-12T06:47:58.930Z,58.01
2023-04-12T06:50:30.997Z,57.99
2023-04-12T06:53:02.578Z,58.02
2023-04-12T06:55:33.672Z,57.99
2023-04-12T06:58:05.640Z,58.02
2023-04-12T07:00:38.142Z,58.10
2023-04-12T07:03:10.239Z,58.49
2023-04-12T07:05:42.495Z,59.06
2023-04-12T07:08:14.034Z,59.34
2023-04-12T07:10:45.344Z,59.68
2023-04-12T07:13:22.381Z,59.95
2023-04-12T07:15:54.702Z,59.97
2023-04-12T07:18:26.704Z,60.13
2023-04-12T07:20:59.760Z,60.18
2023-04-12T07:23:31.576Z,60.39
2023-04-12T07:26:03.695Z,60.45
2023-04-12T07:28:36.142Z,60.50
2023-04-12T07:31:10.348Z,60.89
2023-04-12T07:33:43.146Z,60.74
2023-04-12T07:36:16.799Z,60.78
2023-04-12T07:38:48.946Z,61.00
2023-04-12T07:41:20.619Z,61.41
2023-04-12T07:43:52.398Z,61.80
2023-04-12T07:46:24.493Z,62.00
2023-04-12T07:48:56.806Z,62.40
2023-04-12T07:51:28.349Z,62.31
2023-04-12T07:53:59.932Z,62.50
2023-04-12T07:56:31.729Z,62.69
2023-04-12T07:59:03.675Z,62.79
2023-04-12T08:01:35.703Z,62.90
2023-04-12T08:04:07.500Z,62.91
2023-04-12T08:06:38.669Z,62.96
2023-04-12T08:09:10.503Z,63.03
2023-04-12T08:11:41.729Z,63.30
2023-04-12T08:14:13.361Z,63.35
2023-04-12T08:16:45.423Z,63.49
2023-04-12T08:19:16.785Z,63.29
2023-04-12T08:21:48.363Z,63.36
2023-04-12T08:24:20.195Z,63.29
2023-04-12T08:26:51.737Z,63.34
2023-04-12T08:29:23.473Z,63.40
2023-04-12T08:31:56.618Z,63.45
2023-04-12T08:34:29.110Z,63.19
2023-04-12T08:37:01.299Z,63.25
2023-04-12T08:39:34.170Z,63.46
2023-04-12T08:42:07.503Z,63.73
2023-04-12T08:44:40.287Z,63.81
2023-04-12T08:47:14.158Z,64.01
2023-04-12T08:49:46.523Z,64.10
2023-04-12T08:52:18.437Z,64.55
2023-04-12T08:54:49.714Z,64.37
2023-04-12T08:57:21.691Z,64.82
2023-04-12T08:59:55.171Z,64.95
2023-04-12T09:02:27.258Z,65.06
2023-04-12T09:04:59.239Z,65.30
2023-04-12T09:07:31.551Z,65.22
2023-04-12T09:10:04.830Z,65.29
2023-04-12T09:12:37.171Z,65.63
2023-04-12T09:15:15.706Z,65.58
2023-04-12T09:17:49.310Z,65.66
2023-04-12T09:20:27.298Z,65.48
2023-04-12T09:22:58.476Z,65.47
2023-04-12T09:25:45.526Z,65.23
2023-04-12T09:28:25.896Z,65.05
2023-04-12T09:30:59.300Z,64.93
2023-04-12T09:33:38.486Z,64.90
2023-04-12T09:36:14.512Z,64.80
2023-04-12T09:39:02.420Z,64.52
2023-04-12T09:41:34.411Z,64.43
2023-04-12T09:44:05.849Z,64.69
2023-04-12T09:46:37.898Z,64.77
2023-04-12T09:49:09.623Z,65.07
2023-04-12T09:51:41.386Z,65.21
2023-04-12T09:54:13.194Z,65.02
2023-04-12T09:56:45.668Z,65.08
2023-04-12T09:59:18.509Z,65.10
2023-04-12T10:01:50.476Z,65.04
2023-04-12T10:04:23.025Z,64.82
2023-04-12T10:06:55.126Z,64.62
2023-04-12T10:09:26.713Z,64.52
2023-04-12T10:11:59.671Z,64.40
2023-04-12T10:14:32.564Z,64.14
2023-04-12T10:17:05.025Z,63.95
2023-04-12T10:19:37.607Z,63.99
2023-04-12T10:22:09.495Z,63.98
2023-04-12T10:24:41.608Z,63.89
2023-04-12T10:27:14.396Z,63.96
2023-04-12T10:29:46.424Z,64.08
2023-04-12T10:32:25.785Z,64.02
2023-04-12T10:35:06.077Z,63.88
2023-04-12T10:38:02.771Z,63.80
2023-04-12T10:40:35.811Z,63.61
2023-04-12T10:43:29.005Z,63.67
2023-04-12T10:46:04.552Z,63.69
2023-04-12T10:48:37.683Z,63.81
2023-04-12T10:51:28.246Z,63.78
2023-04-12T10:54:36.491Z,63.71
2023-04-12T10:57:08.789Z,63.54
2023-04-12T10:59:59.657Z,63.62
2023-04-12T11:02:34.834Z,63.38
2023-04-12T11:05:11.785Z,63.25
2023-04-12T11:08:13.349Z,63.53
2023-04-12T11:11:03.664Z,63.57
2023-04-12T11:13:40.340Z,63.44
2023-04-12T11:16:14.026Z,63.43
2023-04-12T11:18:49.656Z,63.24
2023-04-12T11:21:22.872Z,63.46
2023-04-12T11:23:56.561Z,63.21
2023-04-12T11:26:31.289Z,62.92
2023-04-12T11:29:13.593Z,62.95
2023-04-12T11:31:44.874Z,62.81
2023-04-12T11:34:17.264Z,62.81
2023-04-12T11:36:50.659Z,62.80
2023-04-12T11:39:23.138Z,62.78
2023-04-12T11:41:56.071Z,62.73
2023-04-12T11:44:27.887Z,62.56
2023-04-12T11:46:59.146Z,62.47
2023-04-12T11:49:30.647Z,62.00
2023-04-12T11:52:08.834Z,61.84
2023-04-12T11:54:42.686Z,61.72
2023-04-12T11:57:16.938Z,61.79
2023-04-12T11:59:50.374Z,61.83
2023-04-12T12:02:24.320Z,62.13
2023-04-12T12:04:57.143Z,62.30
2023-04-12T12:07:29.028Z,62.60
2023-04-12T12:10:03.673Z,62.97
2023-04-12T12:12:36.487Z,63.03
2023-04-12T12:15:10.937Z,62.69
2023-04-12T12:17:42.469Z,62.72
2023-04-12T12:20:24.647Z,62.96
2023-04-12T12:22:56.258Z,63.63
2023-04-12T12:25:30.545Z,63.87
2023-04-12T12:28:05.736Z,64.43
2023-04-12T12:30:41.672Z,64.53
2023-04-12T12:33:14.376Z,64.59
2023-04-12T12:35:47.060Z,64.70
2023-04-12T12:38:18.679Z,64.60
2023-04-12T12:40:50.464Z,64.63
2023-04-12T12:43:22.346Z,64.74
2023-04-12T12:45:53.869Z,64.58
2023-04-12T12:48:25.697Z,64.68
2023-04-12T12:50:57.087Z,64.86
2023-04-12T12:53:28.944Z,65.03
2023-04-12T12:56:00.307Z,65.48
2023-04-12T12:58:32.356Z,65.91
2023-04-12T13:01:04.585Z,66.23
2023-04-12T13:03:36.532Z,66.08
2023-04-12T13:06:09.596Z,66.18
2023-04-12T13:08:41.187Z,66.33
2023-04-12T13:11:12.576Z,66.23
2023-04-12T13:13:43.919Z,66.18
2023-04-12T13:16:17.879Z,66.37
2023-04-12T13:18:49.626Z,66.53
2023-04-12T13:21:21.416Z,66.51
2023-04-12T13:23:53.037Z,66.60
2023-04-12T13:26:25.802Z,66.58
2023-04-12T13:28:58.211Z,66.60
2023-04-12T13:31:29.839Z,66.48
2023-04-12T13:34:01.472Z,66.51
2023-04-12T13:36:34.267Z,66.44
2023-04-12T13:39:05.961Z,66.44
2023-04-12T13:41:38.155Z,66.24
2023-04-12T13:44:10.165Z,65.95
2023-04-12T13:46:42.153Z,65.83
2023-04-12T13:49:14.147Z,65.73
2023-04-12T13:51:45.776Z,65.77
2023-04-12T13:54:17.748Z,65.71
2023-04-12T13:56:49.108Z,65.63
2023-04-12T13:59:20.334Z,65.54
2023-04-12T14:01:51.962Z,65.49
2023-04-12T14:04:23.707Z,65.32
2023-04-12T14:06:56.194Z,65.47
2023-04-12T14:09:28.772Z,65.47
2023-04-12T14:12:01.824Z,65.26
2023-04-12T14:14:33.582Z,65.21
2023-04-12T14:17:05.237Z,65.16
2023-04-12T14:19:36.924Z,65.11
2023-04-12T14:22:08.577Z,65.23
2023-04-12T14:24:40.640Z,65.20
2023-04-12T14:27:12.891Z,65.04
2023-04-12T14:29:44.571Z,65.01
2023-04-12T14:32:16.032Z,64.96
2023-04-12T14:34:47.358Z,64.79
2023-04-12T14:37:19.091Z,64.97
2023-04-12T14:39:50.976Z,64.71
2023-04-12T14:42:22.459Z,64.70
2023-04-12T14:44:55.013Z,64.81
2023-04-12T14:47:26.477Z,64.89
2023-04-12T14:50:00.422Z,65.15
2023-04-12T14:52:32.084Z,64.81
2023-04-12T14:55:04.499Z,64.83
2023-04-12T14:57:36.990Z,64.86
2023-04-12T15:00:13.613Z,64.74
2023-04-12T15:02:46.424Z,64.79
2023-04-12T15:05:19.304Z,64.91
2023-04-12T15:07:51.263Z,64.69
2023-04-12T15:10:23.392Z,64.82
2023-04-12T15:12:54.551Z,64.57
2023-04-12T15:15:30.163Z,64.56
2023-04-12T15:18:04.632Z,64.56
2023-04-12T15:20:38.665Z,64.61
2023-04-12T15:23:12.649Z,64.48
2023-04-12T15:25:44.209Z,64.55
2023-04-12T15:28:16.271Z,64.57
2023-04-12T15:30:47.763Z,64.71
2023-04-12T15:33:19.201Z,64.64
2023-04-12T15:35:51.770Z,64.64
2023-04-12T15:38:23.822Z,64.60
2023-04-12T15:40:59.268Z,64.62
2023-04-12T15:43:31.254Z,64.80
2023-04-12T15:46:03.070Z,64.70
2023-04-12T15:48:35.944Z,64.85
2023-04-12T15:51:08.259Z,64.76
2023-04-12T15:53:40.875Z,64.83
2023-04-12T15:56:15.656Z,64.53
2023-04-12T15:58:47.419Z,64.62
2023-04-12T16:01:18.570Z,64.62
2023-04-12T16:03:51.043Z,64.67
2023-04-12T16:06:23.428Z,64.74
2023-04-12T16:08:57.726Z,64.79
2023-04-12T16:11:29.748Z,64.70
2023-04-12T16:14:01.276Z,64.61
2023-04-12T16:16:33.563Z,64.65
2023-04-12T16:19:05.204Z,64.79
2023-04-12T16:21:36.872Z,64.90
2023-04-12T16:24:09.838Z,64.97
2023-04-12T16:26:42.231Z,64.83
2023-04-12T16:29:13.858Z,64.84
2023-04-12T16:31:45.522Z,64.97
2023-04-12T16:34:17.828Z,65.06
2023-04-12T16:36:49.812Z,64.94
2023-04-12T16:39:22.087Z,64.92
2023-04-12T16:41:53.597Z,65.00
2023-04-12T16:44:25.381Z,64.96
2023-04-12T16:46:57.176Z,64.98
2023-04-12T16:49:28.758Z,64.86
2023-04-12T16:52:01.580Z,64.81
2023-04-12T16:54:33.521Z,64.85
2023-04-12T16:57:05.940Z,64.78
2023-04-12T16:59:37.779Z,64.87
2023-04-12T17:02:09.300Z,64.88
2023-04-12T17:04:40.857Z,64.91
2023-04-12T17:07:12.501Z,65.07
2023-04-12T17:09:45.182Z,65.00
2023-04-12T17:12:17.396Z,65.19
2023-04-12T17:14:49.063Z,65.05
2023-04-12T17:17:20.764Z,65.15
2023-04-12T17:19:51.903Z,65.02
2023-04-12T17:22:25.734Z,65.10
2023-04-12T17:24:57.169Z,65.24
2023-04-12T17:27:28.550Z,65.77
2023-04-12T17:30:00.257Z,65.30
2023-04-12T17:32:32.147Z,65.14
2023-04-12T17:35:05.205Z,64.82
2023-04-12T17:37:37.503Z,64.82
2023-04-12T17:40:12.591Z,64.85
2023-04-12T17:42:45.118Z,65.03
2023-04-12T17:45:18.576Z,64.95
2023-04-12T17:47:50.843Z,65.21
2023-04-12T17:50:22.620Z,65.28
2023-04-12T17:52:55.637Z,65.26
2023-04-12T17:55:28.755Z,65.27
2023-04-12T17:58:00.409Z,65.36
2023-04-12T18:00:32.349Z,65.44
2023-04-12T18:03:04.034Z,65.59
2023-04-12T18:05:35.775Z,65.55
2023-04-12T18:08:07.622Z,65.59
2023-04-12T18:10:39.073Z,65.54
2023-04-12T18:13:10.223Z,65.31
2023-04-12T18:15:42.135Z,65.35
2023-04-12T18:18:13.841Z,65.28
2023-04-12T18:20:45.240Z,65.33
2023-04-12T18:23:16.530Z,65.34
2023-04-12T18:25:48.103Z,65.51
2023-04-12T18:28:19.479Z,65.40
2023-04-12T18:30:50.981Z,65.55
2023-04-12T18:33:22.231Z,65.60
2023-04-12T18:35:54.712Z,65.63
2023-04-12T18:38:26.509Z,65.81
2023-04-12T18:40:57.874Z,65.79
2023-04-12T18:43:30.538Z,65.81
2023-04-12T18:46:02.064Z,66.06
2023-04-12T18:48:33.701Z,65.95
2023-04-12T18:51:05.200Z,65.79
2023-04-12T18:53:36.609Z,65.86
2023-04-12T18:56:12.519Z,65.97
2023-04-12T18:58:54.599Z,65.99
2023-04-12T19:01:27.283Z,65.90
2023-04-12T19:04:00.319Z,65.95
2023-04-12T19:06:32.463Z,65.97
2023-04-12T19:09:04.749Z,66.03
2023-04-12T19:11:38.301Z,66.33
2023-04-12T19:14:14.852Z,66.26
2023-04-12T19:16:52.670Z,66.48
2023-04-12T19:19:37.546Z,66.57
2023-04-12T19:22:15.791Z,66.53
2023-04-12T19:24:51.544Z,66.61
2023-04-12T19:27:28.825Z,66.92
2023-04-12T19:30:06.869Z,67.22
2023-04-12T19:32:48.976Z,67.35
2023-04-12T19:35:33.012Z,67.27
2023-04-12T19:38:08.471Z,67.20
2023-04-12T19:40:57.638Z,67.21
2023-04-12T19:43:36.333Z,67.37
2023-04-12T19:46:13.942Z,67.23
2023-04-12T19:48:47.221Z,67.24
2023-04-12T19:51:23.596Z,67.39
2023-04-12T19:54:04.552Z,67.42
2023-04-12T19:56:39.561Z,67.31
2023-04-12T19:59:21.191Z,67.33
2023-04-12T20:01:54.469Z,67.51
2023-04-12T20:04:31.677Z,67.48
2023-04-12T20:07:10.422Z,67.45
2023-04-12T20:09:45.049Z,67.48
2023-04-12T20:12:21.988Z,67.61
2023-04-12T20:15:05.193Z,67.85
2023-04-12T20:17:49.089Z,67.97
2023-04-12T20:20:24.886Z,68.06
2023-04-12T20:23:09.520Z,68.07
2023-04-12T20:25:50.240Z,68.16
2023-04-12T20:28:29.486Z,68.26
2023-04-12T20:31:12.041Z,68.19
2023-04-12T20:33:51.904Z,68.20
2023-04-12T20:36:33.740Z,68.21
2023-04-12T20:39:20.491Z,68.34
2023-04-12T20:42:02.310Z,68.47
2023-04-12T20:44:40.925Z,68.42
2023-04-12T20:47:22.377Z,68.32
2023-04-12T20:50:15.022Z,68.41
2023-04-12T20:52:54.935Z,68.34
2023-04-12T20:55:35.765Z,68.24
2023-04-12T20:58:14.828Z,68.07
2023-04-12T21:00:50.760Z,68.04
2023-04-12T21:03:27.468Z,68.04
2023-04-12T21:06:05.897Z,67.93
2023-04-12T21:08:44.860Z,67.95
2023-04-12T21:11:16.809Z,68.14
2023-04-12T21:13:50.005Z,68.09
2023-04-12T21:16:22.017Z,68.19
2023-04-12T21:18:54.280Z,68.18
2023-04-12T21:21:31.162Z,68.28
2023-04-12T21:24:03.742Z,68.38
2023-04-12T21:26:37.497Z,68.46
2023-04-12T21:29:10.778Z,68.91
2023-04-12T21:31:43.357Z,69.02
2023-04-12T21:34:15.828Z,69.49
2023-04-12T21:36:48.437Z,69.79
2023-04-12T21:39:20.694Z,70.02
2023-04-12T21:41:53.228Z,70.05
2023-04-12T21:44:25.748Z,70.49
2023-04-12T21:46:57.297Z,70.98
2023-04-12T21:49:30.494Z,70.73
2023-04-12T21:52:02.146Z,70.91
2023-04-12T21:54:37.116Z,71.39
2023-04-12T21:57:08.648Z,70.93
2023-04-12T21:59:42.103Z,71.01
2023-04-12T22:02:14.258Z,70.82
2023-04-12T22:04:46.138Z,70.95
2023-04-12T22:07:18.075Z,70.72
2023-04-12T22:09:49.722Z,70.75
2023-04-12T22:12:21.493Z,70.65
2023-04-12T22:14:53.144Z,70.60
2023-04-12T22:17:25.297Z,70.47
2023-04-12T22:19:57.533Z,70.40
2023-04-12T22:22:30.160Z,70.34
2023-04-12T22:25:01.868Z,70.15
2023-04-12T22:27:33.670Z,69.80
2023-04-12T22:30:05.352Z,69.51
2023-04-12T22:32:36.560Z,69.45
2023-04-12T22:35:09.251Z,69.25
2023-04-12T22:37:43.461Z,69.15
2023-04-12T22:40:15.848Z,69.32
2023-04-12T22:42:47.584Z,69.16
2023-04-12T22:45:19.652Z,69.32
2023-04-12T22:47:51.526Z,69.12
2023-04-12T22:50:24.849Z,69.36
2023-04-12T22:52:57.854Z,69.50
2023-04-12T22:55:29.307Z,69.48
2023-04-12T22:58:01.991Z,69.55
2023-04-12T23:00:35.312Z,69.66
2023-04-12T23:03:11.119Z,69.68
2023-04-12T23:05:45.015Z,69.83
2023-04-12T23:08:17.848Z,69.78
2023-04-12T23:10:49.700Z,69.88
2023-04-12T23:13:21.060Z,69.94
2023-04-12T23:15:52.514Z,69.94
2023-04-12T23:18:25.938Z,70.05
2023-04-12T23:20:57.132Z,69.95
2023-04-12T23:23:28.517Z,69.81
2023-04-12T23:25:59.726Z,69.96
2023-04-12T23:28:30.905Z,69.88
2023-04-12T23:31:03.275Z,69.64
2023-04-12T23:33:34.941Z,69.75
2023-04-12T23:36:07.176Z,69.59
2023-04-12T23:38:39.037Z,69.64
2023-04-12T23:41:12.766Z,69.76
2023-04-12T23:43:43.887Z,69.73
2023-04-12T23:46:15.322Z,69.58
2023-04-12T23:48:46.690Z,69.49
2023-04-12T23:51:20.422Z,69.36
2023-04-12T23:53:51.790Z,69.36
2023-04-12T23:56:23.386Z,69.45
2023-04-12T23:58:54.758Z,69.51
